sensor_id;sensor_type;location;lat;lon;timestamp;P1;durP1;ratioP1;P2;durP2;ratioP2
10725;SDS011;5414;59.782;16.378;2023-08-08T00:01:24;3.27;;;2.03;;
10725;SDS011;5414;59.782;16.378;2023-08-08T00:03:50;4.33;;;2.50;;
10725;SDS011;5414;59.782;16.378;2023-08-08T00:06:16;3.47;;;2.20;;
10725;SDS011;5414;59.782;16.378;2023-08-08T00:08:44;3.93;;;2.57;;
10725;SDS011;5414;59.782;16.378;2023-08-08T00:11:10;3.47;;;1.97;;
10725;SDS011;5414;59.782;16.378;2023-08-08T00:13:36;3.20;;;2.27;;
10725;SDS011;5414;59.782;16.378;2023-08-08T00:16:02;3.03;;;2.20;;
10725;SDS011;5414;59.782;16.378;2023-08-08T00:18:28;2.90;;;2.10;;
10725;SDS011;5414;59.782;16.378;2023-08-08T00:20:54;5.40;;;2.57;;
10725;SDS011;5414;59.782;16.378;2023-08-08T00:23:20;2.27;;;1.93;;
10725;SDS011;5414;59.782;16.378;2023-08-08T00:25:46;3.87;;;2.13;;
10725;SDS011;5414;59.782;16.378;2023-08-08T00:28:15;3.90;;;2.40;;
10725;SDS011;5414;59.782;16.378;2023-08-08T00:30:41;2.43;;;2.10;;
10725;SDS011;5414;59.782;16.378;2023-08-08T00:33:07;2.23;;;2.03;;
10725;SDS011;5414;59.782;16.378;2023-08-08T00:35:33;3.47;;;2.20;;
10725;SDS011;5414;59.782;16.378;2023-08-08T00:37:59;2.37;;;2.17;;
10725;SDS011;5414;59.782;16.378;2023-08-08T00:40:26;5.93;;;2.37;;
10725;SDS011;5414;59.782;16.378;2023-08-08T00:42:53;3.90;;;1.90;;
10725;SDS011;5414;59.782;16.378;2023-08-08T00:45:19;2.33;;;2.10;;
10725;SDS011;5414;59.782;16.378;2023-08-08T00:47:45;3.47;;;2.30;;
10725;SDS011;5414;59.782;16.378;2023-08-08T00:50:11;2.40;;;2.20;;
10725;SDS011;5414;59.782;16.378;2023-08-08T00:52:37;5.97;;;2.20;;
10725;SDS011;5414;59.782;16.378;2023-08-08T00:55:04;3.07;;;2.00;;
10725;SDS011;5414;59.782;16.378;2023-08-08T00:57:31;2.43;;;2.00;;
10725;SDS011;5414;59.782;16.378;2023-08-08T00:59:57;2.00;;;1.73;;
10725;SDS011;5414;59.782;16.378;2023-08-08T01:02:23;2.60;;;2.10;;
10725;SDS011;5414;59.782;16.378;2023-08-08T01:04:49;3.47;;;2.00;;
10725;SDS011;5414;59.782;16.378;2023-08-08T01:09:41;2.77;;;2.00;;
10725;SDS011;5414;59.782;16.378;2023-08-08T01:12:10;2.90;;;2.00;;
10725;SDS011;5414;59.782;16.378;2023-08-08T01:14:36;3.37;;;1.93;;
10725;SDS011;5414;59.782;16.378;2023-08-08T01:17:03;3.77;;;2.10;;
10725;SDS011;5414;59.782;16.378;2023-08-08T01:19:30;3.60;;;2.03;;
10725;SDS011;5414;59.782;16.378;2023-08-08T01:21:59;2.90;;;2.00;;
10725;SDS011;5414;59.782;16.378;2023-08-08T01:24:28;2.40;;;2.17;;
10725;SDS011;5414;59.782;16.378;2023-08-08T01:26:58;3.47;;;1.80;;
10725;SDS011;5414;59.782;16.378;2023-08-08T01:29:25;3.93;;;2.30;;
10725;SDS011;5414;59.782;16.378;2023-08-08T01:31:51;2.83;;;2.00;;
10725;SDS011;5414;59.782;16.378;2023-08-08T01:34:17;3.80;;;2.07;;
10725;SDS011;5414;59.782;16.378;2023-08-08T01:39:36;3.57;;;2.10;;
10725;SDS011;5414;59.782;16.378;2023-08-08T01:42:03;2.67;;;2.40;;
10725;SDS011;5414;59.782;16.378;2023-08-08T01:44:31;3.77;;;2.13;;
10725;SDS011;5414;59.782;16.378;2023-08-08T01:47:00;3.63;;;2.20;;
10725;SDS011;5414;59.782;16.378;2023-08-08T01:49:26;2.57;;;2.37;;
10725;SDS011;5414;59.782;16.378;2023-08-08T01:51:52;3.97;;;2.20;;
10725;SDS011;5414;59.782;16.378;2023-08-08T01:54:18;4.80;;;2.13;;
10725;SDS011;5414;59.782;16.378;2023-08-08T01:56:44;3.10;;;1.80;;
10725;SDS011;5414;59.782;16.378;2023-08-08T01:59:10;3.43;;;2.00;;
10725;SDS011;5414;59.782;16.378;2023-08-08T02:01:37;3.80;;;2.13;;
10725;SDS011;5414;59.782;16.378;2023-08-08T02:04:03;4.13;;;2.03;;
10725;SDS011;5414;59.782;16.378;2023-08-08T02:06:29;3.20;;;2.00;;
10725;SDS011;5414;59.782;16.378;2023-08-08T02:08:55;4.23;;;2.13;;
10725;SDS011;5414;59.782;16.378;2023-08-08T02:11:21;3.00;;;2.07;;
10725;SDS011;5414;59.782;16.378;2023-08-08T02:13:47;2.50;;;1.93;;
10725;SDS011;5414;59.782;16.378;2023-08-08T02:16:13;3.07;;;1.70;;
10725;SDS011;5414;59.782;16.378;2023-08-08T02:18:41;4.93;;;2.00;;
10725;SDS011;5414;59.782;16.378;2023-08-08T02:21:07;5.97;;;2.10;;
10725;SDS011;5414;59.782;16.378;2023-08-08T02:23:33;2.20;;;1.87;;
10725;SDS011;5414;59.782;16.378;2023-08-08T02:25:59;4.83;;;2.27;;
10725;SDS011;5414;59.782;16.378;2023-08-08T02:28:27;2.10;;;1.90;;
10725;SDS011;5414;59.782;16.378;2023-08-08T02:30:53;4.70;;;2.13;;
10725;SDS011;5414;59.782;16.378;2023-08-08T02:33:20;2.90;;;1.90;;
10725;SDS011;5414;59.782;16.378;2023-08-08T02:35:46;5.43;;;2.20;;
10725;SDS011;5414;59.782;16.378;2023-08-08T02:38:12;5.67;;;2.00;;
10725;SDS011;5414;59.782;16.378;2023-08-08T02:40:38;4.00;;;2.13;;
10725;SDS011;5414;59.782;16.378;2023-08-08T02:43:04;3.73;;;1.87;;
10725;SDS011;5414;59.782;16.378;2023-08-08T02:45:30;4.43;;;2.00;;
10725;SDS011;5414;59.782;16.378;2023-08-08T02:47:56;3.20;;;1.87;;
10725;SDS011;5414;59.782;16.378;2023-08-08T02:50:22;3.53;;;1.90;;
10725;SDS011;5414;59.782;16.378;2023-08-08T02:52:48;2.63;;;1.80;;
10725;SDS011;5414;59.782;16.378;2023-08-08T02:55:14;3.80;;;1.77;;
10725;SDS011;5414;59.782;16.378;2023-08-08T02:57:40;2.57;;;2.03;;
10725;SDS011;5414;59.782;16.378;2023-08-08T03:00:07;4.47;;;1.90;;
10725;SDS011;5414;59.782;16.378;2023-08-08T03:02:33;2.83;;;1.90;;
10725;SDS011;5414;59.782;16.378;2023-08-08T03:04:59;6.13;;;1.90;;
10725;SDS011;5414;59.782;16.378;2023-08-08T03:07:26;5.40;;;1.87;;
10725;SDS011;5414;59.782;16.378;2023-08-08T03:09:52;2.83;;;1.73;;
10725;SDS011;5414;59.782;16.378;2023-08-08T03:12:18;4.13;;;1.70;;
10725;SDS011;5414;59.782;16.378;2023-08-08T03:14:46;2.37;;;1.80;;
10725;SDS011;5414;59.782;16.378;2023-08-08T03:17:12;3.50;;;1.70;;
10725;SDS011;5414;59.782;16.378;2023-08-08T03:19:38;3.73;;;1.77;;
10725;SDS011;5414;59.782;16.378;2023-08-08T03:22:04;5.10;;;2.17;;
10725;SDS011;5414;59.782;16.378;2023-08-08T03:24:30;3.43;;;1.70;;
10725;SDS011;5414;59.782;16.378;2023-08-08T03:26:56;2.43;;;1.80;;
10725;SDS011;5414;59.782;16.378;2023-08-08T03:29:22;2.87;;;1.90;;
10725;SDS011;5414;59.782;16.378;2023-08-08T03:31:50;2.80;;;1.73;;
10725;SDS011;5414;59.782;16.378;2023-08-08T03:34:16;3.53;;;1.83;;
10725;SDS011;5414;59.782;16.378;2023-08-08T03:36:42;6.37;;;1.70;;
10725;SDS011;5414;59.782;16.378;2023-08-08T03:39:08;2.17;;;1.60;;
10725;SDS011;5414;59.782;16.378;2023-08-08T03:41:35;3.37;;;2.10;;
10725;SDS011;5414;59.782;16.378;2023-08-08T03:44:02;4.63;;;2.20;;
10725;SDS011;5414;59.782;16.378;2023-08-08T03:46:28;5.33;;;1.90;;
10725;SDS011;5414;59.782;16.378;2023-08-08T03:48:54;3.60;;;1.97;;
10725;SDS011;5414;59.782;16.378;2023-08-08T03:51:20;2.40;;;2.10;;
10725;SDS011;5414;59.782;16.378;2023-08-08T03:53:47;2.97;;;2.20;;
10725;SDS011;5414;59.782;16.378;2023-08-08T03:56:13;3.53;;;2.00;;
10725;SDS011;5414;59.782;16.378;2023-08-08T03:58:40;2.50;;;2.00;;
10725;SDS011;5414;59.782;16.378;2023-08-08T04:01:06;4.53;;;2.20;;
10725;SDS011;5414;59.782;16.378;2023-08-08T04:03:32;3.43;;;2.10;;
10725;SDS011;5414;59.782;16.378;2023-08-08T04:05:58;5.03;;;2.40;;
10725;SDS011;5414;59.782;16.378;2023-08-08T04:08:24;3.83;;;2.23;;
10725;SDS011;5414;59.782;16.378;2023-08-08T04:10:50;3.27;;;2.23;;
10725;SDS011;5414;59.782;16.378;2023-08-08T04:13:18;3.43;;;2.30;;
10725;SDS011;5414;59.782;16.378;2023-08-08T04:15:44;4.30;;;2.43;;
10725;SDS011;5414;59.782;16.378;2023-08-08T04:18:10;3.13;;;2.20;;
10725;SDS011;5414;59.782;16.378;2023-08-08T04:20:36;4.00;;;2.40;;
10725;SDS011;5414;59.782;16.378;2023-08-08T04:23:04;5.20;;;2.30;;
10725;SDS011;5414;59.782;16.378;2023-08-08T04:25:30;4.20;;;2.20;;
10725;SDS011;5414;59.782;16.378;2023-08-08T04:27:57;2.33;;;2.13;;
10725;SDS011;5414;59.782;16.378;2023-08-08T04:30:23;2.50;;;2.00;;
10725;SDS011;5414;59.782;16.378;2023-08-08T04:32:49;3.27;;;1.90;;
10725;SDS011;5414;59.782;16.378;2023-08-08T04:35:15;4.37;;;2.10;;
10725;SDS011;5414;59.782;16.378;2023-08-08T04:37:41;2.80;;;2.20;;
10725;SDS011;5414;59.782;16.378;2023-08-08T04:40:07;4.60;;;2.03;;
10725;SDS011;5414;59.782;16.378;2023-08-08T04:42:33;2.70;;;2.20;;
10725;SDS011;5414;59.782;16.378;2023-08-08T04:44:59;4.70;;;2.50;;
10725;SDS011;5414;59.782;16.378;2023-08-08T04:47:25;2.87;;;1.93;;
10725;SDS011;5414;59.782;16.378;2023-08-08T04:49:51;2.20;;;1.97;;
10725;SDS011;5414;59.782;16.378;2023-08-08T04:52:17;4.60;;;2.40;;
10725;SDS011;5414;59.782;16.378;2023-08-08T04:54:43;4.00;;;2.33;;
10725;SDS011;5414;59.782;16.378;2023-08-08T04:57:09;3.60;;;2.30;;
10725;SDS011;5414;59.782;16.378;2023-08-08T04:59:35;3.63;;;2.80;;
10725;SDS011;5414;59.782;16.378;2023-08-08T05:02:01;2.80;;;2.50;;
10725;SDS011;5414;59.782;16.378;2023-08-08T05:04:27;4.83;;;2.83;;
10725;SDS011;5414;59.782;16.378;2023-08-08T05:06:53;3.57;;;2.80;;
10725;SDS011;5414;59.782;16.378;2023-08-08T05:09:19;2.87;;;2.47;;
10725;SDS011;5414;59.782;16.378;2023-08-08T05:11:46;5.43;;;2.87;;
10725;SDS011;5414;59.782;16.378;2023-08-08T05:14:12;3.73;;;3.20;;
10725;SDS011;5414;59.782;16.378;2023-08-08T05:16:38;3.37;;;3.00;;
10725;SDS011;5414;59.782;16.378;2023-08-08T05:19:05;2.83;;;2.60;;
10725;SDS011;5414;59.782;16.378;2023-08-08T05:21:31;2.90;;;2.40;;
10725;SDS011;5414;59.782;16.378;2023-08-08T05:23:57;2.90;;;2.40;;
10725;SDS011;5414;59.782;16.378;2023-08-08T05:26:23;3.17;;;2.40;;
10725;SDS011;5414;59.782;16.378;2023-08-08T05:28:49;2.63;;;2.30;;
10725;SDS011;5414;59.782;16.378;2023-08-08T05:31:15;3.23;;;2.83;;
10725;SDS011;5414;59.782;16.378;2023-08-08T05:33:41;3.90;;;2.77;;
10725;SDS011;5414;59.782;16.378;2023-08-08T05:36:07;3.43;;;2.73;;
10725;SDS011;5414;59.782;16.378;2023-08-08T05:38:33;4.30;;;2.90;;
10725;SDS011;5414;59.782;16.378;2023-08-08T05:40:59;3.40;;;3.00;;
10725;SDS011;5414;59.782;16.378;2023-08-08T05:43:25;3.37;;;2.67;;
10725;SDS011;5414;59.782;16.378;2023-08-08T05:45:52;4.07;;;3.13;;
10725;SDS011;5414;59.782;16.378;2023-08-08T05:48:19;3.10;;;2.90;;
10725;SDS011;5414;59.782;16.378;2023-08-08T05:50:45;3.57;;;3.20;;
10725;SDS011;5414;59.782;16.378;2023-08-08T05:53:11;3.57;;;3.13;;
10725;SDS011;5414;59.782;16.378;2023-08-08T05:55:37;5.70;;;3.17;;
10725;SDS011;5414;59.782;16.378;2023-08-08T05:58:06;3.10;;;2.80;;
10725;SDS011;5414;59.782;16.378;2023-08-08T06:00:32;2.77;;;2.57;;
10725;SDS011;5414;59.782;16.378;2023-08-08T06:02:58;3.67;;;2.90;;
10725;SDS011;5414;59.782;16.378;2023-08-08T06:05:24;2.83;;;2.47;;
10725;SDS011;5414;59.782;16.378;2023-08-08T06:07:50;2.60;;;2.40;;
10725;SDS011;5414;59.782;16.378;2023-08-08T06:10:16;4.20;;;2.50;;
10725;SDS011;5414;59.782;16.378;2023-08-08T06:12:42;2.63;;;2.30;;
10725;SDS011;5414;59.782;16.378;2023-08-08T06:15:08;3.27;;;2.60;;
10725;SDS011;5414;59.782;16.378;2023-08-08T06:17:34;3.40;;;2.80;;
10725;SDS011;5414;59.782;16.378;2023-08-08T06:20:00;3.17;;;2.43;;
10725;SDS011;5414;59.782;16.378;2023-08-08T06:22:27;2.27;;;1.87;;
10725;SDS011;5414;59.782;16.378;2023-08-08T06:24:53;2.97;;;2.00;;
10725;SDS011;5414;59.782;16.378;2023-08-08T06:27:20;4.70;;;2.50;;
10725;SDS011;5414;59.782;16.378;2023-08-08T06:29:46;3.33;;;2.33;;
10725;SDS011;5414;59.782;16.378;2023-08-08T06:32:12;2.50;;;2.30;;
10725;SDS011;5414;59.782;16.378;2023-08-08T06:34:38;2.30;;;2.13;;
10725;SDS011;5414;59.782;16.378;2023-08-08T06:37:04;2.10;;;1.90;;
10725;SDS011;5414;59.782;16.378;2023-08-08T06:39:30;2.70;;;2.07;;
10725;SDS011;5414;59.782;16.378;2023-08-08T06:41:57;2.10;;;1.90;;
10725;SDS011;5414;59.782;16.378;2023-08-08T06:44:23;2.17;;;1.97;;
10725;SDS011;5414;59.782;16.378;2023-08-08T06:46:49;2.03;;;1.93;;
10725;SDS011;5414;59.782;16.378;2023-08-08T06:49:15;2.07;;;1.80;;
10725;SDS011;5414;59.782;16.378;2023-08-08T06:51:41;1.73;;;1.63;;
10725;SDS011;5414;59.782;16.378;2023-08-08T06:54:07;2.07;;;1.50;;
10725;SDS011;5414;59.782;16.378;2023-08-08T06:56:33;1.50;;;1.20;;
10725;SDS011;5414;59.782;16.378;2023-08-08T06:58:59;0.77;;;0.77;;
10725;SDS011;5414;59.782;16.378;2023-08-08T07:01:26;0.70;;;0.70;;
10725;SDS011;5414;59.782;16.378;2023-08-08T07:03:52;2.57;;;0.50;;
10725;SDS011;5414;59.782;16.378;2023-08-08T07:06:18;0.70;;;0.60;;
10725;SDS011;5414;59.782;16.378;2023-08-08T07:08:46;0.80;;;0.60;;
10725;SDS011;5414;59.782;16.378;2023-08-08T07:11:12;1.03;;;0.60;;
10725;SDS011;5414;59.782;16.378;2023-08-08T07:13:39;0.73;;;0.40;;
10725;SDS011;5414;59.782;16.378;2023-08-08T07:16:05;1.53;;;0.50;;
10725;SDS011;5414;59.782;16.378;2023-08-08T07:18:31;2.00;;;0.40;;
10725;SDS011;5414;59.782;16.378;2023-08-08T07:20:57;0.53;;;0.50;;
10725;SDS011;5414;59.782;16.378;2023-08-08T07:23:24;0.70;;;0.40;;
10725;SDS011;5414;59.782;16.378;2023-08-08T07:25:50;0.50;;;0.40;;
10725;SDS011;5414;59.782;16.378;2023-08-08T07:28:16;0.53;;;0.53;;
10725;SDS011;5414;59.782;16.378;2023-08-08T07:30:42;1.00;;;0.50;;
10725;SDS011;5414;59.782;16.378;2023-08-08T07:33:08;0.80;;;0.50;;
10725;SDS011;5414;59.782;16.378;2023-08-08T07:35:34;0.73;;;0.50;;
10725;SDS011;5414;59.782;16.378;2023-08-08T07:38:00;0.63;;;0.50;;
10725;SDS011;5414;59.782;16.378;2023-08-08T07:40:26;0.90;;;0.50;;
10725;SDS011;5414;59.782;16.378;2023-08-08T07:42:52;0.33;;;0.33;;
10725;SDS011;5414;59.782;16.378;2023-08-08T07:45:19;1.10;;;0.60;;
10725;SDS011;5414;59.782;16.378;2023-08-08T07:47:46;0.47;;;0.40;;
10725;SDS011;5414;59.782;16.378;2023-08-08T07:50:12;1.47;;;0.57;;
10725;SDS011;5414;59.782;16.378;2023-08-08T07:52:38;1.27;;;0.50;;
10725;SDS011;5414;59.782;16.378;2023-08-08T07:55:05;0.70;;;0.50;;
10725;SDS011;5414;59.782;16.378;2023-08-08T07:57:31;1.03;;;0.50;;
10725;SDS011;5414;59.782;16.378;2023-08-08T08:00:03;0.50;;;0.47;;
10725;SDS011;5414;59.782;16.378;2023-08-08T08:02:34;2.60;;;0.53;;
10725;SDS011;5414;59.782;16.378;2023-08-08T08:05:00;1.43;;;0.63;;
10725;SDS011;5414;59.782;16.378;2023-08-08T08:07:26;0.70;;;0.40;;
10725;SDS011;5414;59.782;16.378;2023-08-08T08:09:52;0.50;;;0.40;;
10725;SDS011;5414;59.782;16.378;2023-08-08T08:12:18;1.57;;;0.50;;
10725;SDS011;5414;59.782;16.378;2023-08-08T08:14:45;1.33;;;0.50;;
10725;SDS011;5414;59.782;16.378;2023-08-08T08:17:11;0.40;;;0.40;;
10725;SDS011;5414;59.782;16.378;2023-08-08T08:19:37;0.60;;;0.50;;
10725;SDS011;5414;59.782;16.378;2023-08-08T08:22:03;0.63;;;0.50;;
10725;SDS011;5414;59.782;16.378;2023-08-08T08:24:29;0.70;;;0.50;;
10725;SDS011;5414;59.782;16.378;2023-08-08T08:26:55;0.43;;;0.43;;
10725;SDS011;5414;59.782;16.378;2023-08-08T08:29:21;0.77;;;0.53;;
10725;SDS011;5414;59.782;16.378;2023-08-08T08:31:47;0.77;;;0.60;;
10725;SDS011;5414;59.782;16.378;2023-08-08T08:34:13;0.60;;;0.60;;
10725;SDS011;5414;59.782;16.378;2023-08-08T08:36:40;1.70;;;0.60;;
10725;SDS011;5414;59.782;16.378;2023-08-08T08:39:06;0.93;;;0.67;;
10725;SDS011;5414;59.782;16.378;2023-08-08T08:41:32;0.50;;;0.50;;
10725;SDS011;5414;59.782;16.378;2023-08-08T08:44:02;0.97;;;0.60;;
10725;SDS011;5414;59.782;16.378;2023-08-08T08:46:28;0.40;;;0.40;;
10725;SDS011;5414;59.782;16.378;2023-08-08T08:48:55;0.40;;;0.40;;
10725;SDS011;5414;59.782;16.378;2023-08-08T08:51:21;0.50;;;0.50;;
10725;SDS011;5414;59.782;16.378;2023-08-08T08:53:51;0.47;;;0.47;;
10725;SDS011;5414;59.782;16.378;2023-08-08T08:56:17;0.90;;;0.50;;
10725;SDS011;5414;59.782;16.378;2023-08-08T08:58:43;0.60;;;0.50;;
10725;SDS011;5414;59.782;16.378;2023-08-08T09:01:10;1.40;;;0.63;;
10725;SDS011;5414;59.782;16.378;2023-08-08T09:03:36;0.50;;;0.50;;
10725;SDS011;5414;59.782;16.378;2023-08-08T09:06:02;0.50;;;0.50;;
10725;SDS011;5414;59.782;16.378;2023-08-08T09:08:30;1.33;;;0.60;;
10725;SDS011;5414;59.782;16.378;2023-08-08T09:10:56;0.60;;;0.60;;
10725;SDS011;5414;59.782;16.378;2023-08-08T09:13:23;2.10;;;0.70;;
10725;SDS011;5414;59.782;16.378;2023-08-08T09:15:51;0.53;;;0.50;;
10725;SDS011;5414;59.782;16.378;2023-08-08T09:18:18;0.60;;;0.60;;
10725;SDS011;5414;59.782;16.378;2023-08-08T09:20:47;0.70;;;0.70;;
10725;SDS011;5414;59.782;16.378;2023-08-08T09:23:14;0.80;;;0.60;;
10725;SDS011;5414;59.782;16.378;2023-08-08T09:25:40;1.47;;;0.70;;
10725;SDS011;5414;59.782;16.378;2023-08-08T09:28:06;1.10;;;0.60;;
10725;SDS011;5414;59.782;16.378;2023-08-08T09:30:33;0.70;;;0.70;;
10725;SDS011;5414;59.782;16.378;2023-08-08T09:33:02;1.53;;;0.77;;
10725;SDS011;5414;59.782;16.378;2023-08-08T09:35:28;1.80;;;0.70;;
10725;SDS011;5414;59.782;16.378;2023-08-08T09:37:55;0.80;;;0.67;;
10725;SDS011;5414;59.782;16.378;2023-08-08T09:40:22;0.70;;;0.70;;
10725;SDS011;5414;59.782;16.378;2023-08-08T09:42:50;0.77;;;0.77;;
10725;SDS011;5414;59.782;16.378;2023-08-08T09:45:16;1.43;;;0.87;;
10725;SDS011;5414;59.782;16.378;2023-08-08T09:47:42;0.90;;;0.90;;
10725;SDS011;5414;59.782;16.378;2023-08-08T09:50:08;1.10;;;1.00;;
10725;SDS011;5414;59.782;16.378;2023-08-08T09:52:35;1.47;;;0.83;;
10725;SDS011;5414;59.782;16.378;2023-08-08T09:55:05;0.70;;;0.70;;
10725;SDS011;5414;59.782;16.378;2023-08-08T09:57:32;0.73;;;0.73;;
10725;SDS011;5414;59.782;16.378;2023-08-08T09:59:58;0.80;;;0.80;;
10725;SDS011;5414;59.782;16.378;2023-08-08T10:02:25;1.10;;;1.00;;
10725;SDS011;5414;59.782;16.378;2023-08-08T10:04:51;1.53;;;1.00;;
10725;SDS011;5414;59.782;16.378;2023-08-08T10:07:18;1.40;;;0.70;;
10725;SDS011;5414;59.782;16.378;2023-08-08T10:09:44;0.70;;;0.70;;
10725;SDS011;5414;59.782;16.378;2023-08-08T10:12:10;0.73;;;0.73;;
10725;SDS011;5414;59.782;16.378;2023-08-08T10:14:37;0.90;;;0.80;;
10725;SDS011;5414;59.782;16.378;2023-08-08T10:17:04;2.30;;;0.83;;
10725;SDS011;5414;59.782;16.378;2023-08-08T10:19:30;1.13;;;1.03;;
10725;SDS011;5414;59.782;16.378;2023-08-08T10:21:57;1.53;;;0.90;;
10725;SDS011;5414;59.782;16.378;2023-08-08T10:24:24;1.20;;;0.90;;
10725;SDS011;5414;59.782;16.378;2023-08-08T10:29:20;1.17;;;0.90;;
10725;SDS011;5414;59.782;16.378;2023-08-08T10:31:52;1.93;;;0.80;;
10725;SDS011;5414;59.782;16.378;2023-08-08T10:34:19;0.80;;;0.80;;
10725;SDS011;5414;59.782;16.378;2023-08-08T10:36:50;1.33;;;0.90;;
10725;SDS011;5414;59.782;16.378;2023-08-08T10:39:18;0.87;;;0.87;;
10725;SDS011;5414;59.782;16.378;2023-08-08T10:41:45;1.10;;;1.00;;
10725;SDS011;5414;59.782;16.378;2023-08-08T10:44:12;2.03;;;1.20;;
10725;SDS011;5414;59.782;16.378;2023-08-08T10:46:40;2.27;;;1.00;;
10725;SDS011;5414;59.782;16.378;2023-08-08T10:49:07;0.93;;;0.90;;
10725;SDS011;5414;59.782;16.378;2023-08-08T10:51:41;1.13;;;0.90;;
10725;SDS011;5414;59.782;16.378;2023-08-08T10:54:15;1.33;;;0.70;;
10725;SDS011;5414;59.782;16.378;2023-08-08T10:56:46;0.60;;;0.60;;
10725;SDS011;5414;59.782;16.378;2023-08-08T10:59:15;0.70;;;0.60;;
10725;SDS011;5414;59.782;16.378;2023-08-08T11:01:45;0.60;;;0.50;;
10725;SDS011;5414;59.782;16.378;2023-08-08T11:04:12;0.50;;;0.50;;
10725;SDS011;5414;59.782;16.378;2023-08-08T11:06:38;0.60;;;0.60;;
10725;SDS011;5414;59.782;16.378;2023-08-08T11:09:05;0.80;;;0.60;;
10725;SDS011;5414;59.782;16.378;2023-08-08T11:11:41;0.63;;;0.63;;
10725;SDS011;5414;59.782;16.378;2023-08-08T11:16:36;0.80;;;0.80;;
10725;SDS011;5414;59.782;16.378;2023-08-08T11:19:03;0.90;;;0.70;;
10725;SDS011;5414;59.782;16.378;2023-08-08T11:21:29;0.60;;;0.60;;
10725;SDS011;5414;59.782;16.378;2023-08-08T11:23:57;2.63;;;0.80;;
10725;SDS011;5414;59.782;16.378;2023-08-08T11:26:23;1.37;;;0.80;;
10725;SDS011;5414;59.782;16.378;2023-08-08T11:28:52;0.80;;;0.80;;
10725;SDS011;5414;59.782;16.378;2023-08-08T11:31:19;0.60;;;0.60;;
10725;SDS011;5414;59.782;16.378;2023-08-08T11:33:48;0.93;;;0.80;;
10725;SDS011;5414;59.782;16.378;2023-08-08T11:36:14;1.57;;;0.70;;
10725;SDS011;5414;59.782;16.378;2023-08-08T11:38:41;1.03;;;0.80;;
10725;SDS011;5414;59.782;16.378;2023-08-08T11:41:09;1.37;;;0.63;;
10725;SDS011;5414;59.782;16.378;2023-08-08T11:43:35;1.17;;;0.80;;
10725;SDS011;5414;59.782;16.378;2023-08-08T11:46:02;0.80;;;0.80;;
10725;SDS011;5414;59.782;16.378;2023-08-08T11:48:28;2.20;;;1.00;;
10725;SDS011;5414;59.782;16.378;2023-08-08T11:50:55;1.73;;;0.73;;
10725;SDS011;5414;59.782;16.378;2023-08-08T11:53:22;1.67;;;0.80;;
10725;SDS011;5414;59.782;16.378;2023-08-08T11:55:48;1.83;;;0.80;;
10725;SDS011;5414;59.782;16.378;2023-08-08T11:58:14;1.80;;;1.00;;
10725;SDS011;5414;59.782;16.378;2023-08-08T12:00:42;1.23;;;1.13;;
10725;SDS011;5414;59.782;16.378;2023-08-08T12:03:12;1.27;;;1.20;;
10725;SDS011;5414;59.782;16.378;2023-08-08T12:05:47;1.63;;;1.30;;
10725;SDS011;5414;59.782;16.378;2023-08-08T12:08:17;2.33;;;1.57;;
10725;SDS011;5414;59.782;16.378;2023-08-08T12:10:47;1.47;;;1.37;;
10725;SDS011;5414;59.782;16.378;2023-08-08T12:13:22;2.13;;;1.57;;
10725;SDS011;5414;59.782;16.378;2023-08-08T12:15:48;1.50;;;1.40;;
10725;SDS011;5414;59.782;16.378;2023-08-08T12:18:18;2.20;;;1.57;;
10725;SDS011;5414;59.782;16.378;2023-08-08T12:20:44;1.40;;;1.30;;
10725;SDS011;5414;59.782;16.378;2023-08-08T12:23:10;1.60;;;1.47;;
10725;SDS011;5414;59.782;16.378;2023-08-08T12:25:37;2.83;;;1.67;;
10725;SDS011;5414;59.782;16.378;2023-08-08T12:28:03;1.87;;;1.30;;
10725;SDS011;5414;59.782;16.378;2023-08-08T12:30:30;3.23;;;1.30;;
10725;SDS011;5414;59.782;16.378;2023-08-08T12:32:56;1.20;;;1.13;;
10725;SDS011;5414;59.782;16.378;2023-08-08T12:35:22;1.43;;;1.33;;
10725;SDS011;5414;59.782;16.378;2023-08-08T12:37:51;1.40;;;1.30;;
10725;SDS011;5414;59.782;16.378;2023-08-08T12:40:17;1.40;;;1.30;;
10725;SDS011;5414;59.782;16.378;2023-08-08T12:42:43;1.33;;;1.23;;
10725;SDS011;5414;59.782;16.378;2023-08-08T12:45:09;1.60;;;1.10;;
10725;SDS011;5414;59.782;16.378;2023-08-08T12:47:36;2.53;;;1.00;;
10725;SDS011;5414;59.782;16.378;2023-08-08T12:50:05;1.10;;;1.00;;
10725;SDS011;5414;59.782;16.378;2023-08-08T12:52:32;2.20;;;1.20;;
10725;SDS011;5414;59.782;16.378;2023-08-08T12:54:59;1.33;;;1.23;;
10725;SDS011;5414;59.782;16.378;2023-08-08T12:57:25;1.00;;;1.00;;
10725;SDS011;5414;59.782;16.378;2023-08-08T12:59:51;2.50;;;1.20;;
10725;SDS011;5414;59.782;16.378;2023-08-08T13:02:17;1.30;;;0.90;;
10725;SDS011;5414;59.782;16.378;2023-08-08T13:04:43;2.00;;;1.03;;
10725;SDS011;5414;59.782;16.378;2023-08-08T13:07:09;1.20;;;1.10;;
10725;SDS011;5414;59.782;16.378;2023-08-08T13:09:35;1.40;;;1.20;;
10725;SDS011;5414;59.782;16.378;2023-08-08T13:12:02;1.97;;;0.97;;
10725;SDS011;5414;59.782;16.378;2023-08-08T13:14:28;1.27;;;1.10;;
10725;SDS011;5414;59.782;16.378;2023-08-08T13:16:54;1.10;;;1.00;;
10725;SDS011;5414;59.782;16.378;2023-08-08T13:19:20;2.00;;;1.20;;
10725;SDS011;5414;59.782;16.378;2023-08-08T13:21:50;1.20;;;1.10;;
10725;SDS011;5414;59.782;16.378;2023-08-08T13:24:16;2.07;;;1.20;;
10725;SDS011;5414;59.782;16.378;2023-08-08T13:26:42;1.53;;;1.30;;
10725;SDS011;5414;59.782;16.378;2023-08-08T13:29:08;1.40;;;1.30;;
10725;SDS011;5414;59.782;16.378;2023-08-08T13:31:34;1.47;;;1.37;;
10725;SDS011;5414;59.782;16.378;2023-08-08T13:34:00;1.13;;;1.03;;
10725;SDS011;5414;59.782;16.378;2023-08-08T13:36:26;3.43;;;1.30;;
10725;SDS011;5414;59.782;16.378;2023-08-08T13:38:52;1.63;;;1.30;;
10725;SDS011;5414;59.782;16.378;2023-08-08T13:41:18;2.20;;;1.20;;
10725;SDS011;5414;59.782;16.378;2023-08-08T13:43:44;1.30;;;1.10;;
10725;SDS011;5414;59.782;16.378;2023-08-08T13:46:10;2.27;;;1.40;;
10725;SDS011;5414;59.782;16.378;2023-08-08T13:48:36;2.60;;;1.50;;
10725;SDS011;5414;59.782;16.378;2023-08-08T13:51:03;2.83;;;1.47;;
10725;SDS011;5414;59.782;16.378;2023-08-08T13:53:29;1.77;;;1.20;;
10725;SDS011;5414;59.782;16.378;2023-08-08T13:55:55;2.17;;;1.40;;
10725;SDS011;5414;59.782;16.378;2023-08-08T13:58:21;1.77;;;1.37;;
10725;SDS011;5414;59.782;16.378;2023-08-08T14:00:48;2.70;;;1.37;;
10725;SDS011;5414;59.782;16.378;2023-08-08T14:03:14;2.00;;;1.40;;
10725;SDS011;5414;59.782;16.378;2023-08-08T14:05:40;2.10;;;1.37;;
10725;SDS011;5414;59.782;16.378;2023-08-08T14:08:06;1.40;;;1.30;;
10725;SDS011;5414;59.782;16.378;2023-08-08T14:10:32;2.30;;;1.30;;
10725;SDS011;5414;59.782;16.378;2023-08-08T14:12:58;1.63;;;1.20;;
10725;SDS011;5414;59.782;16.378;2023-08-08T14:15:24;2.30;;;1.03;;
10725;SDS011;5414;59.782;16.378;2023-08-08T14:17:51;1.37;;;1.13;;
10725;SDS011;5414;59.782;16.378;2023-08-08T14:20:17;2.03;;;1.40;;
10725;SDS011;5414;59.782;16.378;2023-08-08T14:22:44;1.40;;;1.20;;
10725;SDS011;5414;59.782;16.378;2023-08-08T14:25:13;1.20;;;1.10;;
10725;SDS011;5414;59.782;16.378;2023-08-08T14:27:40;2.60;;;1.30;;
10725;SDS011;5414;59.782;16.378;2023-08-08T14:30:06;2.20;;;1.10;;
10725;SDS011;5414;59.782;16.378;2023-08-08T14:32:32;1.07;;;1.00;;
10725;SDS011;5414;59.782;16.378;2023-08-08T14:34:58;1.50;;;0.93;;
10725;SDS011;5414;59.782;16.378;2023-08-08T14:37:24;1.73;;;1.10;;
10725;SDS011;5414;59.782;16.378;2023-08-08T14:39:50;0.97;;;0.90;;
10725;SDS011;5414;59.782;16.378;2023-08-08T14:42:16;2.40;;;1.00;;
10725;SDS011;5414;59.782;16.378;2023-08-08T14:44:43;2.10;;;1.00;;
10725;SDS011;5414;59.782;16.378;2023-08-08T14:47:09;0.90;;;0.90;;
10725;SDS011;5414;59.782;16.378;2023-08-08T14:49:35;1.83;;;1.03;;
10725;SDS011;5414;59.782;16.378;2023-08-08T14:52:01;1.83;;;1.30;;
10725;SDS011;5414;59.782;16.378;2023-08-08T14:54:27;1.40;;;1.10;;